Time;durP1;ratioP1;P1;durP2;ratioP2;P2;SDS_P1;SDS_P2;PMS_P1;PMS_P2;Temp;Humidity;BMP_temperature;BMP_pressure;BME280_temperature;BME280_humidity;BME280_pressure;Samples;Min_cycle;Max_cycle;Signal;HPM_P1;HPM_P2
2023/04/12 00:01:27;;;;;;;8.93;2.90;;;;;;;7.32;100.00;100454.97;5052533;28;20033;-53
2023/04/12 00:03:53;;;;;;;8.85;2.95;;;;;;;7.30;100.00;100437.78;5051425;28;20044;-55
2023/04/12 00:06:24;;;;;;;8.90;3.08;;;;;;;7.27;100.00;100429.97;5052517;28;20021;-53
2023/04/12 00:08:49;;;;;;;8.13;2.80;;;;;;;7.24;100.00;100426.47;5052751;28;20036;-54
2023/04/12 00:11:15;;;;;;;8.48;3.00;;;;;;;7.21;100.00;100418.66;5052168;28;20021;-54
2023/04/12 00:13:41;;;;;;;9.75;2.92;;;;;;;7.18;100.00;100403.19;5052883;28;20025;-54
2023/04/12 00:16:08;;;;;;;8.52;2.97;;;;;;;7.15;100.00;100403.06;5052761;28;20465;-54
2023/04/12 00:18:33;;;;;;;9.40;2.42;;;;;;;7.15;100.00;100395.38;5051520;28;20035;-54
2023/04/12 00:20:58;;;;;;;7.97;2.97;;;;;;;7.14;100.00;100401.34;5052674;28;20021;-56
2023/04/12 00:23:24;;;;;;;7.35;2.60;;;;;;;7.11;100.00;100392.66;5051491;28;20040;-54
2023/04/12 00:25:49;;;;;;;10.55;3.25;;;;;;;7.07;100.00;100382.28;5052665;28;20442;-58
2023/04/12 00:28:15;;;;;;;12.38;3.25;;;;;;;7.06;100.00;100371.97;5052631;28;20021;-56
2023/04/12 00:30:40;;;;;;;9.70;2.85;;;;;;;7.06;100.00;100364.28;5051586;28;20024;-55
2023/04/12 00:33:06;;;;;;;9.13;2.50;;;;;;;7.04;100.00;100348.00;5052668;28;20032;-55
2023/04/12 00:35:31;;;;;;;9.57;2.92;;;;;;;7.02;100.00;100353.09;5052417;28;20445;-55
2023/04/12 00:37:56;;;;;;;8.25;2.58;;;;;;;7.02;100.00;100336.81;5051605;28;20403;-54
2023/04/12 00:40:22;;;;;;;8.77;2.85;;;;;;;7.00;100.00;100330.78;5052362;28;20053;-54
2023/04/12 00:42:47;;;;;;;8.77;3.00;;;;;;;6.99;100.00;100322.22;5052510;28;20021;-54
2023/04/12 00:45:13;;;;;;;10.18;2.67;;;;;;;7.01;100.00;100319.69;5051854;28;20032;-55
2023/04/12 00:47:41;;;;;;;10.10;3.30;;;;;;;6.99;100.00;100314.53;5051975;28;20408;-53
2023/04/12 00:50:08;;;;;;;8.05;2.90;;;;;;;6.99;100.00;100316.22;5052410;28;20029;-54
2023/04/12 00:52:34;;;;;;;8.85;2.72;;;;;;;6.98;100.00;100304.22;5051187;28;20029;-55
2023/04/12 00:55:03;;;;;;;10.77;2.95;;;;;;;6.96;100.00;100303.28;5052242;28;20479;-54
2023/04/12 00:57:39;;;;;;;12.43;3.70;;;;;;;6.96;100.00;100298.16;5052090;28;20040;-55
2023/04/12 01:00:07;;;;;;;10.45;2.83;;;;;;;6.95;100.00;100283.63;5051612;28;20025;-55
2023/04/12 01:02:33;;;;;;;12.00;3.10;;;;;;;6.92;100.00;100274.16;5051888;28;20036;-55
2023/04/12 01:05:00;;;;;;;10.00;3.33;;;;;;;6.91;100.00;100272.41;5052024;28;20052;-55
2023/04/12 01:07:46;;;;;;;10.85;3.40;;;;;;;6.94;100.00;100253.72;5051067;28;20108;-55
2023/04/12 01:10:46;;;;;;;10.68;3.30;;;;;;;6.91;100.00;100251.91;5052328;28;20028;-55
2023/04/12 01:13:16;;;;;;;11.30;3.40;;;;;;;6.87;100.00;100238.13;5043948;28;20037;-54
2023/04/12 01:15:51;;;;;;;8.80;3.50;;;;;;;6.87;100.00;100230.44;5054773;28;20035;-54
2023/04/12 01:18:22;;;;;;;14.63;3.58;;;;;;;6.87;100.00;100227.00;5055477;28;20411;-55
2023/04/12 01:20:56;;;;;;;9.65;3.25;;;;;;;6.84;100.00;100214.97;5055066;28;20074;-56
2023/04/12 01:23:43;;;;;;;10.65;3.65;;;;;;;6.83;100.00;100208.09;5055282;28;20528;-55
2023/04/12 01:26:24;;;;;;;12.38;3.85;;;;;;;6.82;100.00;100203.78;5055555;28;20495;-55
2023/04/12 01:28:52;;;;;;;11.95;3.97;;;;;;;6.82;100.00;100192.69;5054997;28;20029;-58
2023/04/12 01:31:20;;;;;;;11.82;3.67;;;;;;;6.80;100.00;100182.38;5055261;28;20025;-55
2023/04/12 01:33:46;;;;;;;10.38;3.17;;;;;;;6.79;100.00;100172.06;5054578;28;20471;-55
2023/04/12 01:36:17;;;;;;;11.48;3.47;;;;;;;6.80;100.00;100177.25;5055310;28;20057;-55
2023/04/12 01:38:42;;;;;;;9.48;3.60;;;;;;;6.78;100.00;100163.53;5055613;28;20025;-56
2023/04/12 01:41:08;;;;;;;10.35;3.75;;;;;;;6.78;100.00;100154.97;5054612;28;20025;-56
2023/04/12 01:43:39;;;;;;;13.60;4.07;;;;;;;6.79;100.00;100141.34;5054915;28;20502;-56
2023/04/12 01:46:05;;;;;;;11.25;3.72;;;;;;;6.76;100.00;100144.66;5055204;28;20476;-56
2023/04/12 01:48:31;;;;;;;13.32;3.92;;;;;;;6.79;100.00;100129.41;5054151;28;20036;-55
2023/04/12 01:51:05;;;;;;;12.10;4.13;;;;;;;6.77;100.00;100135.31;5055107;28;20033;-55
2023/04/12 01:53:52;;;;;;;16.33;4.07;;;;;;;6.76;100.00;100124.19;5054992;28;20100;-54
2023/04/12 01:56:19;;;;;;;16.08;3.60;;;;;;;6.77;100.00;100120.81;5054041;28;20025;-54
2023/04/12 01:58:47;;;;;;;12.63;4.10;;;;;;;6.78;100.00;100126.78;5055039;28;20036;-56
2023/04/12 02:01:14;;;;;;;12.68;4.10;;;;;;;6.79;100.00;100114.06;5054900;28;20116;-54
2023/04/12 02:03:41;;;;;;;18.23;4.30;;;;;;;6.77;100.00;100094.34;5053600;28;20545;-54
2023/04/12 02:06:08;;;;;;;15.15;4.03;;;;;;;6.75;100.00;100084.00;5054972;28;20415;-56
2023/04/12 02:08:34;;;;;;;11.00;3.72;;;;;;;6.75;100.00;100073.78;5054656;28;20120;-56
2023/04/12 02:11:00;;;;;;;10.27;3.72;;;;;;;6.74;100.00;100069.50;5054010;28;20029;-55
2023/04/12 02:13:25;;;;;;;10.60;3.90;;;;;;;6.74;100.00;100069.50;5054547;28;20075;-54
2023/04/12 02:15:53;;;;;;;11.25;3.70;;;;;;;6.77;100.00;100068.72;5054472;28;20021;-55
2023/04/12 02:18:18;;;;;;;;;;;;;;;6.83;100.00;100050.97;5054239;28;20021;-54
2023/04/12 02:20:44;;;;;;;14.20;4.30;;;;;;;6.76;100.00;100044.78;5054612;28;19924;-55
2023/04/12 02:23:09;;;;;;;10.65;3.35;;;;;;;6.77;100.00;100036.28;5053710;28;20428;-55
2023/04/12 02:25:34;;;;;;;13.88;3.90;;;;;;;6.77;100.00;100025.19;5054055;28;20033;-54
2023/04/12 02:28:00;;;;;;;11.32;3.38;;;;;;;6.78;100.00;100025.22;5054437;28;20075;-54
2023/04/12 02:30:25;;;;;;;11.07;3.50;;;;;;;6.79;100.00;100026.09;5053262;28;20041;-55
2023/04/12 02:32:51;;;;;;;12.77;3.95;;;;;;;6.79;100.00;100019.28;5054219;28;20021;-55
2023/04/12 02:35:17;;;;;;;10.98;3.88;;;;;;;6.77;100.00;100004.69;5054069;28;20040;-54
2023/04/12 02:37:45;;;;;;;10.13;3.35;;;;;;;6.77;100.00;100003.00;5053568;28;20025;-54
2023/04/12 02:40:13;;;;;;;11.02;3.50;;;;;;;6.77;100.00;99992.75;5054073;28;20436;-55
2023/04/12 02:42:38;;;;;;;10.73;3.22;;;;;;;6.75;100.00;99982.47;5053888;28;20103;-55
2023/04/12 02:45:04;;;;;;;13.98;3.85;;;;;;;6.75;100.00;99979.91;5053263;28;20200;-51
2023/04/12 02:47:29;;;;;;;11.65;3.38;;;;;;;6.77;100.00;99973.97;5053785;28;20029;-54
2023/04/12 02:49:55;;;;;;;10.18;3.75;;;;;;;6.76;100.00;99965.41;5054101;28;20029;-54
2023/04/12 02:52:20;;;;;;;12.20;3.63;;;;;;;6.75;100.00;99955.97;5052885;28;20036;-55
2023/04/12 02:54:48;;;;;;;7.07;2.80;;;;;;;6.75;100.00;99948.28;5053888;28;20025;-54
2023/04/12 02:57:14;;;;;;;11.73;3.20;;;;;;;6.77;100.00;99945.81;5053710;28;20477;-55
2023/04/12 02:59:40;;;;;;;10.57;2.85;;;;;;;6.77;100.00;99935.56;5052628;28;20036;-54
2023/04/12 03:02:06;;;;;;;7.03;2.80;;;;;;;6.77;100.00;99920.19;5053834;28;20036;-55
2023/04/12 03:04:31;;;;;;;8.90;3.15;;;;;;;6.75;100.00;99918.44;5053259;28;20041;-54
2023/04/12 03:06:56;;;;;;;7.75;3.15;;;;;;;6.75;100.00;99917.56;5052966;28;20017;-55
2023/04/12 03:09:22;;;;;;;7.97;3.30;;;;;;;6.75;100.00;99913.31;5053345;28;20435;-54
2023/04/12 03:11:48;;;;;;;11.38;2.85;;;;;;;6.75;100.00;99907.31;5053516;28;20025;-54
2023/04/12 03:14:13;;;;;;;10.13;2.83;;;;;;;6.73;100.00;99898.72;5052633;28;20032;-54
2023/04/12 03:16:39;;;;;;;8.27;2.70;;;;;;;6.71;100.00;99892.69;5053477;28;20038;-54
2023/04/12 03:19:05;;;;;;;9.55;3.22;;;;;;;6.69;100.00;99876.44;5053567;28;20025;-53
2023/04/12 03:21:32;;;;;;;8.90;3.22;;;;;;;6.68;100.00;99882.38;5052310;28;20524;-54
2023/04/12 03:24:00;;;;;;;9.75;2.88;;;;;;;6.66;100.00;99892.56;5053275;28;20391;-53
2023/04/12 03:26:26;;;;;;;10.40;3.00;;;;;;;6.65;100.00;99878.03;5052310;28;20021;-53
2023/04/12 03:29:00;;;;;;;10.35;3.13;;;;;;;6.62;100.00;99871.94;5053213;28;20025;-54
2023/04/12 03:31:25;;;;;;;10.68;3.33;;;;;;;6.64;100.00;99860.06;5053078;28;20029;-53
2023/04/12 03:33:51;;;;;;;9.52;3.20;;;;;;;6.66;100.00;99858.41;5052587;28;20095;-54
2023/04/12 03:36:16;;;;;;;9.93;3.33;;;;;;;6.64;100.00;99862.63;5052959;28;20376;-55
2023/04/12 03:38:42;;;;;;;7.40;3.03;;;;;;;6.64;100.00;99860.06;5052833;28;20133;-55
2023/04/12 03:41:07;;;;;;;12.05;3.13;;;;;;;6.62;100.00;99854.00;5052207;28;20017;-54
2023/04/12 03:43:34;;;;;;;9.90;2.90;;;;;;;6.62;100.00;99864.25;5052543;28;20480;-54
2023/04/12 03:46:02;;;;;;;8.40;3.38;;;;;;;6.60;100.00;99843.72;5053121;28;20083;-54
2023/04/12 03:48:27;;;;;;;8.35;3.30;;;;;;;6.60;100.00;99851.41;5052053;28;20110;-54
2023/04/12 03:50:53;;;;;;;10.15;3.60;;;;;;;6.59;100.00;99844.56;5052963;28;20076;-52
2023/04/12 03:53:19;;;;;;;9.50;2.83;;;;;;;6.57;100.00;99836.84;5052568;28;20473;-54
2023/04/12 03:55:45;;;;;;;10.73;3.22;;;;;;;6.58;100.00;99828.34;5051951;28;20554;-55
2023/04/12 03:58:12;;;;;;;8.30;3.33;;;;;;;6.58;100.00;99817.19;5052770;28;20045;-54
2023/04/12 04:00:37;;;;;;;9.73;3.10;;;;;;;6.57;100.00;99808.66;5052600;28;20033;-54
2023/04/12 04:03:04;;;;;;;12.35;3.33;;;;;;;6.58;100.00;99809.53;5051917;28;20384;-51
2023/04/12 04:05:30;;;;;;;9.73;3.17;;;;;;;6.60;100.00;99810.44;5052344;28;20388;-54
2023/04/12 04:07:59;;;;;;;7.57;2.90;;;;;;;6.61;100.00;99801.94;5052709;28;20021;-53
2023/04/12 04:10:26;;;;;;;8.38;3.38;;;;;;;6.60;100.00;99795.09;5051617;28;20033;-54
2023/04/12 04:12:51;;;;;;;10.73;3.40;;;;;;;6.61;100.00;99791.72;5052900;28;20049;-54
2023/04/12 04:15:17;;;;;;;9.30;3.10;;;;;;;6.61;100.00;99793.38;5052320;28;20319;-53
2023/04/12 04:17:43;;;;;;;8.45;3.40;;;;;;;6.59;100.00;99786.53;5051846;28;20071;-54
2023/04/12 04:20:11;;;;;;;9.25;2.88;;;;;;;6.59;100.00;99772.88;5052635;28;20037;-54
2023/04/12 04:22:37;;;;;;;;;;;;;;;6.63;100.00;99774.69;5051831;28;20095;-53
2023/04/12 04:25:02;;;;;;;12.45;3.65;;;;;;;6.55;100.00;99771.91;5052431;28;19913;-54
2023/04/12 04:27:29;;;;;;;10.82;3.85;;;;;;;6.55;100.00;99761.66;5052404;28;20032;-55
2023/04/12 04:29:58;;;;;;;8.13;3.58;;;;;;;6.54;100.00;99759.06;5051698;28;20879;-53
2023/04/12 04:32:24;;;;;;;11.82;3.58;;;;;;;6.55;100.00;99760.81;5052319;28;20033;-53
2023/04/12 04:34:50;;;;;;;7.72;3.47;;;;;;;6.54;100.00;99754.81;5052594;28;20041;-54
2023/04/12 04:37:17;;;;;;;8.38;3.70;;;;;;;6.54;100.00;99749.69;5051606;28;20405;-55
2023/04/12 04:39:43;;;;;;;8.55;3.45;;;;;;;6.55;100.00;99751.44;5052521;28;20021;-54
2023/04/12 04:42:08;;;;;;;11.93;4.07;;;;;;;6.55;100.00;99742.88;5052539;28;20080;-54
2023/04/12 04:44:34;;;;;;;6.05;3.78;;;;;;;6.57;100.00;99739.56;5051340;28;20017;-53
2023/04/12 04:47:00;;;;;;;8.20;3.67;;;;;;;6.56;100.00;99735.25;5052411;28;20052;-54
2023/04/12 04:49:25;;;;;;;11.65;4.07;;;;;;;6.57;100.00;99743.78;5052988;28;20515;-54
2023/04/12 04:51:50;;;;;;;10.02;3.58;;;;;;;6.57;100.00;99737.00;5055338;28;20048;-53
2023/04/12 04:54:15;;;;;;;7.63;4.05;;;;;;;6.57;100.00;99739.56;5055861;28;20104;-54
2023/04/12 04:56:41;;;;;;;7.50;3.60;;;;;;;6.58;100.00;99745.53;5056277;28;20057;-54
2023/04/12 04:59:06;;;;;;;10.45;3.88;;;;;;;6.58;100.00;99736.16;5055544;28;20025;-53
2023/04/12 05:01:35;;;;;;;10.52;3.78;;;;;;;6.59;100.00;99722.53;5055722;28;20044;-53
2023/04/12 05:04:01;;;;;;;11.15;4.20;;;;;;;6.61;100.00;99732.81;5055599;28;20045;-54
2023/04/12 05:06:26;;;;;;;9.93;4.07;;;;;;;6.62;100.00;99726.84;5054687;28;20056;-54
2023/04/12 05:08:52;;;;;;;5.82;3.40;;;;;;;6.63;100.00;99722.63;5055717;28;20071;-53
2023/04/12 05:11:18;;;;;;;10.30;3.78;;;;;;;6.63;100.00;99727.75;5055650;28;20021;-50
2023/04/12 05:13:43;;;;;;;11.52;4.07;;;;;;;6.65;100.00;99726.06;5055132;28;20083;-54
2023/04/12 05:16:10;;;;;;;8.05;3.95;;;;;;;6.67;100.00;99729.56;5055756;28;20017;-53
2023/04/12 05:18:35;;;;;;;8.73;3.80;;;;;;;6.66;100.00;99726.13;5055436;28;20033;-54
2023/04/12 05:21:02;;;;;;;11.82;3.80;;;;;;;6.67;100.00;99719.31;5055098;28;20024;-53
2023/04/12 05:23:28;;;;;;;10.32;3.78;;;;;;;6.68;100.00;99719.34;5055124;28;20029;-53
2023/04/12 05:25:53;;;;;;;9.32;3.67;;;;;;;6.71;100.00;99710.88;5055004;28;20040;-53
2023/04/12 05:28:18;;;;;;;8.88;3.85;;;;;;;6.70;100.00;99710.03;5055287;28;20095;-53
2023/04/12 05:30:44;;;;;;;9.18;4.43;;;;;;;6.73;100.00;99711.81;5055524;28;20531;-54
2023/04/12 05:33:09;;;;;;;8.52;4.20;;;;;;;6.74;100.00;99714.41;5054823;28;20033;-53
2023/04/12 05:35:35;;;;;;;13.10;4.60;;;;;;;6.74;100.00;99711.84;5055038;28;20485;-53
2023/04/12 05:38:00;;;;;;;8.05;4.35;;;;;;;6.74;100.00;99705.88;5055203;28;20107;-54
2023/04/12 05:40:26;;;;;;;9.23;4.50;;;;;;;6.78;100.00;99696.53;5054376;28;20021;-53
2023/04/12 05:42:51;;;;;;;11.02;4.85;;;;;;;6.79;100.00;99698.28;5055293;28;20033;-54
2023/04/12 05:45:16;;;;;;;8.25;4.97;;;;;;;6.79;100.00;99694.03;5054692;28;20075;-54
2023/04/12 05:47:42;;;;;;;10.27;4.82;;;;;;;6.80;100.00;99697.47;5054314;28;20032;-53
2023/04/12 05:50:07;;;;;;;9.77;4.47;;;;;;;6.85;100.00;99698.44;5055139;28;20031;-53
2023/04/12 05:52:33;;;;;;;7.68;4.85;;;;;;;6.90;100.00;99707.13;5054639;28;20384;-53
2023/04/12 05:54:58;;;;;;;8.50;4.93;;;;;;;6.91;100.00;99704.59;5054462;28;20017;-54
2023/04/12 05:57:24;;;;;;;9.57;4.90;;;;;;;6.91;100.00;99704.59;5054742;28;20100;-53
2023/04/12 05:59:49;;;;;;;8.88;5.47;;;;;;;6.93;100.00;99694.38;5054699;28;20025;-54
2023/04/12 06:02:15;;;;;;;9.82;5.38;;;;;;;6.96;100.00;99701.28;5053835;28;20025;-54
2023/04/12 06:04:40;;;;;;;8.77;4.70;;;;;;;6.97;100.00;99692.78;5054613;28;20045;-54
2023/04/12 06:07:06;;;;;;;8.63;4.80;;;;;;;7.00;100.00;99685.19;5054787;28;20033;-53
2023/04/12 06:09:31;;;;;;;8.93;4.90;;;;;;;7.00;100.00;99698.00;5053985;28;20017;-54
2023/04/12 06:11:56;;;;;;;16.92;4.40;;;;;;;7.01;100.00;99697.13;5054788;28;20029;-54
2023/04/12 06:14:22;;;;;;;10.30;4.78;;;;;;;7.03;100.00;99690.38;5054353;28;20033;-54
2023/04/12 06:16:47;;;;;;;11.10;4.88;;;;;;;7.04;100.00;99690.41;5054000;28;20457;-54
2023/04/12 06:19:13;;;;;;;9.93;4.68;;;;;;;7.04;100.00;99682.72;5054562;28;20421;-53
2023/04/12 06:21:38;;;;;;;8.25;4.85;;;;;;;7.06;100.00;99693.88;5054117;28;20038;-53
2023/04/12 06:24:03;;;;;;;6.82;4.18;;;;;;;7.07;100.00;99689.63;5053410;28;20029;-53
2023/04/12 06:26:29;;;;;;;8.23;4.30;;;;;;;7.09;100.00;99693.09;5054008;28;20044;-53
2023/04/12 06:28:54;;;;;;;9.50;4.80;;;;;;;7.09;100.00;99690.53;5054455;28;20488;-53
2023/04/12 06:31:20;;;;;;;8.20;4.70;;;;;;;7.09;100.00;99677.72;5053335;28;20021;-52
2023/04/12 06:33:46;;;;;;;8.77;4.65;;;;;;;7.12;100.00;99692.31;5054178;28;20052;-53
2023/04/12 06:36:11;;;;;;;8.43;4.82;;;;;;;7.14;100.00;99685.50;5053346;28;20033;-54
2023/04/12 06:38:36;;;;;;;8.50;5.18;;;;;;;7.15;100.00;99687.25;5053744;28;20103;-52
2023/04/12 06:41:02;;;;;;;10.88;5.88;;;;;;;7.17;100.00;99688.16;5053883;28;20060;-54
2023/04/12 06:43:27;;;;;;;10.43;6.60;;;;;;;7.16;100.00;99679.59;5052835;28;20115;-51
2023/04/12 06:45:53;;;;;;;14.55;6.50;;;;;;;7.16;100.00;99684.72;5054141;28;20032;-53
2023/04/12 06:48:18;;;;;;;11.30;6.65;;;;;;;7.17;100.00;99678.75;5053686;28;20045;-54
2023/04/12 06:50:44;;;;;;;11.70;6.55;;;;;;;7.18;100.00;99693.31;5053128;28;20032;-53
2023/04/12 06:53:09;;;;;;;11.75;7.57;;;;;;;7.17;100.00;99691.56;5053792;28;20052;-54
2023/04/12 06:55:35;;;;;;;12.02;8.13;;;;;;;7.19;100.00;99695.06;5053421;28;20037;-53
2023/04/12 06:58:00;;;;;;;13.98;8.77;;;;;;;7.18;100.00;99688.19;5053207;28;20037;-54
2023/04/12 07:00:25;;;;;;;11.55;7.57;;;;;;;7.20;100.00;99686.50;5053497;28;20028;-52
2023/04/12 07:02:51;;;;;;;13.07;8.43;;;;;;;7.22;100.00;99692.56;5053652;28;20375;-53
2023/04/12 07:05:16;;;;;;;15.45;8.82;;;;;;;7.28;100.00;99693.53;5052509;28;20056;-53
2023/04/12 07:07:41;;;;;;;13.75;9.02;;;;;;;7.30;100.00;99691.88;5053551;28;20100;-53
2023/04/12 07:10:07;;;;;;;13.27;9.10;;;;;;;7.39;100.00;99697.22;5053779;28;20464;-54
2023/04/12 07:12:32;;;;;;;13.55;8.32;;;;;;;7.41;100.00;99685.31;5051697;28;20025;-52
2023/04/12 07:14:58;;;;;;;13.18;8.63;;;;;;;7.41;100.00;99696.44;5053581;28;20020;-54
2023/04/12 07:17:25;;;;;;;10.65;7.90;;;;;;;7.45;100.00;99699.94;5053242;28;20116;-55
2023/04/12 07:19:54;;;;;;;11.80;7.30;;;;;;;7.46;100.00;99698.25;5052681;28;20036;-54
2023/04/12 07:22:19;;;;;;;13.13;7.38;;;;;;;7.45;100.00;99696.50;5053171;28;20032;-53
2023/04/12 07:24:44;;;;;;;11.82;7.00;;;;;;;7.46;100.00;99688.84;5053409;28;20032;-51
2023/04/12 07:27:10;;;;;;;13.63;7.20;;;;;;;7.54;100.00;99692.47;5052657;28;20045;-51
2023/04/12 07:29:36;;;;;;;13.65;6.68;;;;;;;7.55;100.00;99691.63;5052840;28;20033;-53
2023/04/12 07:32:02;;;;;;;11.25;6.45;;;;;;;7.56;100.00;99689.94;5053236;28;20052;-53
2023/04/12 07:34:28;;;;;;;11.90;6.50;;;;;;;7.60;100.00;99690.88;5052207;28;20021;-53
2023/04/12 07:36:53;;;;;;;12.23;7.07;;;;;;;7.65;100.00;99695.25;5053014;28;20124;-53
2023/04/12 07:39:18;;;;;;;11.65;7.30;;;;;;;7.71;100.00;99687.72;5052901;28;20469;-55
2023/04/12 07:41:45;;;;;;;14.43;6.93;;;;;;;7.76;100.00;99687.84;5052456;28;20017;-51
2023/04/12 07:44:11;;;;;;;16.05;7.80;;;;;;;7.86;100.00;99676.94;5053065;28;20025;-51
2023/04/12 07:46:37;;;;;;;16.30;8.73;;;;;;;7.87;100.00;99681.22;5051977;28;20029;-54
2023/04/12 07:49:03;;;;;;;13.75;7.40;;;;;;;7.93;100.00;99684.75;5052848;28;20028;-53
2023/04/12 07:51:28;;;;;;;14.10;6.65;;;;;;;7.93;100.00;99677.03;5052451;28;20029;-53
2023/04/12 07:53:53;;;;;;;12.82;6.50;;;;;;;7.92;100.00;99676.19;5052356;28;20487;-50
2023/04/12 07:56:18;;;;;;;17.60;6.57;;;;;;;7.95;100.00;99671.13;5052766;28;20027;-53
2023/04/12 07:58:44;;;;;;;15.82;6.28;;;;;;;8.00;100.00;99666.94;5052877;28;20380;-54
2023/04/12 08:01:11;;;;;;;16.25;5.35;;;;;;;8.00;100.00;99676.34;5052285;28;20098;-53
2023/04/12 08:03:36;;;;;;;14.38;4.90;;;;;;;8.01;100.00;99667.84;5052287;28;20408;-51
2023/04/12 08:06:02;;;;;;;20.65;5.57;;;;;;;7.97;100.00;99678.88;5053173;28;20460;-51
2023/04/12 08:08:27;;;;;;;18.50;5.50;;;;;;;7.91;100.00;99683.03;5051777;28;20442;-53
2023/04/12 08:10:52;;;;;;;16.95;5.90;;;;;;;7.90;100.00;99672.72;5052778;28;20035;-52
2023/04/12 08:13:18;;;;;;;14.60;5.35;;;;;;;7.89;100.00;99679.56;5052420;28;20075;-52
2023/04/12 08:15:45;;;;;;;15.32;6.13;;;;;;;7.91;100.00;99698.44;5051930;28;20025;-53
2023/04/12 08:18:11;;;;;;;16.33;6.45;;;;;;;7.87;100.00;99696.59;5052501;28;20465;-53
2023/04/12 08:20:39;;;;;;;13.80;5.80;;;;;;;7.83;100.00;99693.97;5052239;28;20040;-52
2023/04/12 08:23:04;;;;;;;;;;;;;;;7.93;100.00;99705.28;5052608;28;20028;-52
2023/04/12 08:25:30;;;;;;;15.87;8.30;;;;;;;7.78;100.00;99700.69;5056397;28;19999;-53
2023/04/12 08:27:55;;;;;;;20.23;8.90;;;;;;;7.80;100.00;99693.88;5056498;28;20354;-54
2023/04/12 08:30:25;;;;;;;16.23;7.20;;;;;;;7.85;100.00;99692.28;5055404;28;20040;-53
2023/04/12 08:32:51;;;;;;;16.92;7.50;;;;;;;7.84;100.00;99690.56;5056564;28;20029;-51
2023/04/12 08:35:16;;;;;;;20.38;6.60;;;;;;;7.83;100.00;99684.56;5056093;28;20032;-52
2023/04/12 08:37:41;;;;;;;15.77;6.10;;;;;;;7.85;100.00;99693.16;5055622;28;20429;-57
2023/04/12 08:40:07;;;;;;;18.92;6.57;;;;;;;7.91;100.00;99698.44;5056514;28;20039;-57
2023/04/12 08:42:35;;;;;;;16.23;5.40;;;;;;;7.98;100.00;99699.41;5056152;28;20040;-57
2023/04/12 08:45:05;;;;;;;19.17;5.70;;;;;;;8.15;100.00;99683.53;5055625;28;20033;-57
2023/04/12 08:47:36;;;;;;;21.27;5.82;;;;;;;8.32;100.00;99678.72;5056033;28;20025;-57
2023/04/12 08:50:04;;;;;;;19.92;5.68;;;;;;;8.47;100.00;99684.19;5055685;28;20021;-57
2023/04/12 08:52:32;;;;;;;18.63;5.40;;;;;;;8.65;100.00;99682.78;5056062;28;20094;-57
2023/04/12 08:55:02;;;;;;;18.00;5.70;;;;;;;8.88;100.00;99678.94;5056341;28;20025;-58
2023/04/12 08:57:28;;;;;;;18.13;5.35;;;;;;;9.12;100.00;99679.34;5055131;28;20017;-57
2023/04/12 08:59:53;;;;;;;21.65;5.85;;;;;;;9.31;100.00;99689.09;5055993;28;20380;-57
2023/04/12 09:02:19;;;;;;;18.33;5.45;;;;;;;9.30;100.00;99682.22;5055548;28;20025;-57
2023/04/12 09:04:48;;;;;;;21.55;5.55;;;;;;;9.43;100.00;99685.84;5054989;28;20045;-57
2023/04/12 09:07:14;;;;;;;20.65;6.10;;;;;;;9.59;100.00;99680.94;5055951;28;20033;-57
2023/04/12 09:09:41;;;;;;;20.48;6.53;;;;;;;9.69;100.00;99678.50;5055584;28;20029;-57
2023/04/12 09:12:08;;;;;;;21.65;7.13;;;;;;;9.84;100.00;99669.28;5054930;28;20394;-57
2023/04/12 09:14:33;;;;;;;19.83;6.30;;;;;;;9.98;100.00;99675.47;5055503;28;20025;-57
2023/04/12 09:16:58;;;;;;;22.38;7.38;;;;;;;10.14;100.00;99667.94;5055627;28;20040;-57
2023/04/12 09:19:35;;;;;;;23.33;7.50;;;;;;;10.15;100.00;99670.53;5054551;28;20491;-57
2023/04/12 09:22:01;;;;;;;23.70;8.10;;;;;;;10.21;100.00;99662.91;5055900;28;20029;-57
2023/04/12 09:24:28;;;;;;;25.38;8.23;;;;;;;10.26;100.00;99667.22;5055189;28;20506;-58
2023/04/12 09:27:04;;;;;;;25.53;9.33;;;;;;;10.49;100.00;99668.38;5054830;28;20063;-57
2023/04/12 09:29:30;;;;;;;27.98;9.55;;;;;;;11.10;100.00;99666.38;5055117;28;20334;-57
2023/04/12 09:32:04;;;;;;;19.25;8.30;;;;;;;11.48;100.00;99669.25;5055533;28;20044;-57
2023/04/12 09:34:31;;;;;;;25.63;8.02;;;;;;;11.43;100.00;99665.78;5054711;28;20029;-58
2023/04/12 09:36:57;;;;;;;20.45;8.50;;;;;;;11.23;100.00;99657.88;5054638;28;20060;-57
2023/04/12 09:39:32;;;;;;;26.48;8.57;;;;;;;10.98;100.00;99662.84;5054382;28;20986;-57
2023/04/12 09:42:11;;;;;;;22.85;9.40;;;;;;;10.75;100.00;99669.50;5055416;28;20025;-57
2023/04/12 09:44:37;;;;;;;26.75;10.25;;;;;;;10.74;100.00;99668.63;5054818;28;20064;-57
2023/04/12 09:47:04;;;;;;;28.08;9.15;;;;;;;10.66;100.00;99655.66;5054302;28;20029;-57
2023/04/12 09:49:38;;;;;;;22.80;8.75;;;;;;;10.93;100.00;99659.34;5054793;28;20043;-57
2023/04/12 09:52:05;;;;;;;28.02;9.00;;;;;;;11.07;99.76;99651.75;5055025;28;20032;-57
2023/04/12 09:54:36;;;;;;;27.20;8.82;;;;;;;11.15;97.59;99654.38;5053822;28;20079;-57
2023/04/12 09:57:05;;;;;;;22.65;8.20;;;;;;;10.98;96.78;99643.94;5054921;28;20503;-57
2023/04/12 09:59:35;;;;;;;19.73;7.45;;;;;;;10.93;98.05;99643.03;5054695;28;20053;-57
2023/04/12 10:02:05;;;;;;;27.88;8.10;;;;;;;10.87;98.56;99644.72;5054210;28;20029;-58
2023/04/12 10:04:32;;;;;;;22.25;7.03;;;;;;;10.76;94.18;99646.31;5054271;28;20123;-57
2023/04/12 10:07:00;;;;;;;29.73;7.90;;;;;;;10.58;93.24;99651.31;5054896;28;20090;-57
2023/04/12 10:09:26;;;;;;;30.05;7.82;;;;;;;10.47;96.10;99644.31;5053867;28;20036;-57
2023/04/12 10:11:52;;;;;;;22.42;7.10;;;;;;;10.40;96.71;99637.38;5054822;28;20032;-57
2023/04/12 10:14:20;;;;;;;24.45;7.78;;;;;;;10.39;97.50;99635.63;5053707;28;20029;-58
2023/04/12 10:16:47;;;;;;;29.73;7.90;;;;;;;10.33;99.75;99651.00;5054625;28;20024;-58
2023/04/12 10:19:13;;;;;;;27.47;7.93;;;;;;;10.19;100.00;99656.84;5054732;28;20021;-58
2023/04/12 10:21:38;;;;;;;31.88;8.05;;;;;;;10.43;99.78;99652.88;5053589;28;20081;-57
2023/04/12 10:24:05;;;;;;;24.20;8.18;;;;;;;10.85;99.40;99651.56;5054546;28;20029;-58
2023/04/12 10:26:31;;;;;;;27.98;8.10;;;;;;;11.17;95.85;99643.22;5054360;28;20025;-58
2023/04/12 10:29:25;;;;;;;29.23;7.65;;;;;;;11.69;93.67;99642.72;5053886;28;20028;-58
2023/04/12 10:31:55;;;;;;;21.98;7.07;;;;;;;12.02;89.35;99650.66;5054266;28;20031;-58
2023/04/12 10:34:28;;;;;;;31.25;7.28;;;;;;;12.07;89.22;99642.94;5054031;28;20025;-57
2023/04/12 10:36:55;;;;;;;24.67;5.88;;;;;;;12.14;83.80;99645.53;5053704;28;20024;-57
2023/04/12 10:39:36;;;;;;;27.50;6.38;;;;;;;12.15;85.35;99656.75;5053974;28;20031;-58
2023/04/12 10:42:26;;;;;;;25.30;5.97;;;;;;;12.04;84.37;99648.94;5053629;28;20028;-57
2023/04/12 10:45:15;;;;;;;25.42;6.15;;;;;;;11.81;84.03;99656.53;5053384;28;20025;-58
2023/04/12 10:47:46;;;;;;;26.70;6.22;;;;;;;11.70;82.49;99648.75;5053808;28;20090;-57
2023/04/12 10:50:25;;;;;;;24.40;5.55;;;;;;;11.68;83.78;99656.50;5053314;28;20029;-57
2023/04/12 10:53:08;;;;;;;20.90;4.18;;;;;;;11.39;78.81;99665.72;5054057;28;20029;-58
2023/04/12 10:55:34;;;;;;;19.65;4.03;;;;;;;10.85;71.96;99667.03;5053628;28;20116;-58
2023/04/12 10:58:00;;;;;;;24.23;4.68;;;;;;;10.60;75.96;99667.63;5053002;28;20104;-58
2023/04/12 11:00:57;;;;;;;26.25;5.07;;;;;;;10.49;79.61;99667.53;5053708;28;20025;-57
2023/04/12 11:03:24;;;;;;;24.63;4.85;;;;;;;10.37;78.67;99663.97;5072610;28;20071;-58
2023/04/12 11:06:15;;;;;;;19.67;4.83;;;;;;;10.36;82.02;99671.66;5073077;28;20026;-58
2023/04/12 11:08:42;;;;;;;21.90;4.97;;;;;;;10.15;85.15;99670.53;5072050;28;20040;-58
2023/04/12 11:11:19;;;;;;;27.50;5.88;;;;;;;10.06;87.35;99657.56;5071572;28;20028;-58
2023/04/12 11:13:45;;;;;;;18.83;5.72;;;;;;;10.00;88.10;99668.63;5073316;28;20414;-58
2023/04/12 11:16:13;;;;;;;20.33;5.28;;;;;;;9.87;87.99;99670.16;5073609;28;20467;-58
2023/04/12 11:18:38;;;;;;;24.13;5.03;;;;;;;9.72;88.84;99672.53;5072385;28;20020;-58
2023/04/12 11:21:04;;;;;;;24.75;5.60;;;;;;;9.76;91.52;99678.59;5073365;28;20392;-58
2023/04/12 11:23:31;;;;;;;24.75;5.95;;;;;;;9.64;92.21;99676.72;5072491;28;20036;-58
2023/04/12 11:25:56;;;;;;;26.95;7.18;;;;;;;9.55;91.95;99667.16;5072613;28;20039;-58
2023/04/12 11:28:22;;;;;;;26.00;7.95;;;;;;;9.54;94.64;99673.13;5073141;28;20022;-58